Shipshewana, Indiana
Current Conditions -  °F | °C
As of 4:34 PM on Friday 24 Oct 2014 (Local Time) from KIRS Reporting Station
Scattered Clouds Scattered Clouds  
Wind Chill: 16°   Ceiling: Unl
Heat Index: 16°   Visibility: 10mi
Dew Point: 11°   Wind: 6mph
Humidity: 72%   Direction: 220°SW
Pressure: 29.98"   Gusts: NA
Location:  41.67°N, 85.58°W
Report Text: KIRS 242034Z AUTO 22005KT 10SM SCT036 16/11 A2998 RMK AO2
Loading
Personal Weather Stations






























Interactive Weather Map
Tropical Storm Tracking
New forecast layout! Learn more

10-Day Weather Forecast

Advertisements
Track Severe Weather on mobile